Time;durP1;ratioP1;P1;durP2;ratioP2;P2;SDS_P1;SDS_P2;PMS_P1;PMS_P2;Temp;Humidity;BMP_temperature;BMP_pressure;BME280_temperature;BME280_humidity;BME280_pressure;Samples;Min_cycle;Max_cycle;Signal;HPM_P1;HPM_P2
2022/11/28 00:01:02;;;;;;;;;;;;;;;11.45;60.31;100944.66;4963348;28;124830;-66
2022/11/28 00:03:28;;;;;;;;;;;;;;;11.46;60.39;100951.66;4967425;28;123934;-66
2022/11/28 00:05:56;;;;;;;;;;;;;;;11.47;60.50;100937.47;4959864;28;115152;-67
2022/11/28 00:08:22;;;;;;;;;;;;;;;11.49;60.11;100934.75;4963897;28;114413;-66
2022/11/28 00:10:49;;;;;;;;;;;;;;;11.50;60.50;100916.09;4961430;28;125804;-66
2022/11/28 00:13:16;;;;;;;;;;;;;;;11.53;60.54;100924.84;4957979;28;123897;-66
2022/11/28 00:15:43;;;;;;;;;;;;;;;11.55;60.11;100926.50;4950087;28;113502;-66
2022/11/28 00:18:10;;;;;;;;;;;;;;;11.58;60.40;100933.44;4964000;28;114657;-66
2022/11/28 00:20:36;;;;;;;;;;;;;;;11.61;60.48;100925.34;4963621;28;124451;-66
2022/11/28 00:23:03;;;;;;;;;;;;;;;11.64;60.50;100922.53;4963931;28;124045;-66
2022/11/28 00:25:30;;;;;;;;;;;;;;;11.66;60.39;100928.66;4960360;28;114581;-66
2022/11/28 00:27:57;;;;;;;;;;;;;;;11.67;60.55;100920.59;4966048;28;113453;-66
2022/11/28 00:30:24;;;;;;;;;;;;;;;11.71;60.41;100923.97;4955523;28;124118;-66
2022/11/28 00:32:50;;;;;;;;;;;;;;;11.74;60.49;100917.66;4965778;28;123994;-66
2022/11/28 00:35:17;;;;;;;;;;;;;;;11.75;60.22;100919.38;4944498;28;114468;-66
2022/11/28 00:37:44;;;;;;;;;;;;;;;11.77;60.41;100913.06;4966378;28;114248;-66
2022/11/28 00:40:11;;;;;;;;;;;;;;;11.78;60.27;100913.91;4965397;28;124329;-66
2022/11/28 00:42:38;;;;;;;;;;;;;;;11.79;60.40;100911.19;4965080;28;123967;-66
2022/11/28 00:45:05;;;;;;;;;;;;;;;11.80;60.38;100907.59;4960870;28;114765;-66
2022/11/28 00:47:32;;;;;;;;;;;;;;;11.80;60.19;100904.94;4965304;28;114051;-66
2022/11/28 00:49:59;;;;;;;;;;;;;;;11.80;60.33;100902.28;4954516;28;98499;-65
2022/11/28 00:52:26;;;;;;;;;;;;;;;11.81;60.25;100897.81;4956746;28;124979;-66
2022/11/28 00:54:53;;;;;;;;;;;;;;;11.81;60.28;100898.72;4941040;28;114548;-65
2022/11/28 00:57:20;;;;;;;;;;;;;;;11.83;60.30;100906.59;4962366;28;114977;-65
2022/11/28 00:59:47;;;;;;;;;;;;;;;11.84;60.33;100903.84;4950268;28;123015;-66
2022/11/28 01:02:14;;;;;;;;;;;;;;;11.87;60.23;100898.41;4961638;28;123597;-66
2022/11/28 01:04:41;;;;;;;;;;;;;;;11.85;60.20;100897.63;4969074;28;114154;-66
2022/11/28 01:07:08;;;;;;;;;;;;;;;11.86;60.20;100891.34;4963244;28;113607;-66
2022/11/28 01:09:35;;;;;;;;;;;;;;;11.87;60.21;100892.25;4968623;28;124270;-66
2022/11/28 01:12:02;;;;;;;;;;;;;;;11.87;60.42;100897.56;4960616;28;123745;-66
2022/11/28 01:14:29;;;;;;;;;;;;;;;11.88;60.40;100888.63;4953868;28;114302;-67
2022/11/28 01:16:56;;;;;;;;;;;;;;;11.88;60.33;100894.81;4958388;28;113409;-66
2022/11/28 01:19:23;;;;;;;;;;;;;;;11.92;60.26;100894.69;4958167;28;124570;-66
2022/11/28 01:21:49;;;;;;;;;;;;;;;11.92;60.36;100900.00;4967832;28;123531;-66
2022/11/28 01:24:16;;;;;;;;;;;;;;;11.93;60.18;100891.09;4963373;28;113782;-66
2022/11/28 01:26:43;;;;;;;;;;;;;;;11.95;60.26;100894.53;4967217;28;113903;-65
2022/11/28 01:29:10;;;;;;;;;;;;;;;11.95;60.33;100890.09;4966045;28;124388;-66
2022/11/28 01:31:37;;;;;;;;;;;;;;;11.97;60.36;100887.34;4965774;28;125014;-66
2022/11/28 01:34:04;;;;;;;;;;;;;;;11.97;60.27;100888.22;4963643;28;114916;-66
2022/11/28 01:36:31;;;;;;;;;;;;;;;11.97;60.21;100893.50;4968026;28;113461;-66
2022/11/28 01:38:58;;;;;;;;;;;;;;;11.99;60.20;100890.78;4953474;28;124371;-66
2022/11/28 01:41:26;;;;;;;;;;;;;;;12.00;60.35;100898.69;4955151;28;124727;-66
2022/11/28 01:43:56;;;;;;;;;;;;;;;12.02;60.30;100895.97;4950857;28;115523;-66
2022/11/28 01:46:23;;;;;;;;;;;;;;;12.04;60.31;100904.69;4955117;28;114808;-65
2022/11/28 01:48:51;;;;;;;;;;;;;;;12.04;60.39;100888.78;4932554;28;124628;-66
2022/11/28 01:51:18;;;;;;;;;;;;;;;12.04;60.26;100889.63;4950918;28;124448;-66
2022/11/28 01:53:46;;;;;;;;;;;;;;;12.06;60.25;100892.22;4956386;28;114355;-65
2022/11/28 01:56:15;;;;;;;;;;;;;;;12.06;60.09;100897.53;4935423;28;114024;-66
2022/11/28 01:58:45;;;;;;;;;;;;;;;12.06;60.25;100897.53;4953020;28;124140;-66
2022/11/28 02:01:12;;;;;;;;;;;;;;;12.06;60.39;100892.22;4953011;28;124475;-66
2022/11/28 02:03:43;;;;;;;;;;;;;;;12.05;60.29;100885.16;4954583;28;114390;-66
2022/11/28 02:06:12;;;;;;;;;;;;;;;12.05;60.38;100879.84;4952069;28;113647;-66
2022/11/28 02:08:39;;;;;;;;;;;;;;;12.05;60.34;100885.16;4952356;28;123975;-66
2022/11/28 02:11:17;;;;;;;;;;;;;;;12.03;60.03;100885.25;4953679;28;125239;-66
2022/11/28 02:14:02;;;;;;;;;;;;;;;12.03;60.26;100881.72;4950821;28;114454;-66
2022/11/28 02:16:35;;;;;;;;;;;;;;;12.02;60.17;100885.34;4954805;28;113834;-66
2022/11/28 02:19:02;;;;;;;;;;;;;;;12.00;60.24;100876.59;4949977;28;124292;-66
2022/11/28 02:21:35;;;;;;;;;;;;;;;12.00;60.30;100879.25;4952759;28;124737;-66
2022/11/28 02:24:01;;;;;;;;;;;;;;;11.99;60.44;100874.88;4957511;28;114383;-66
2022/11/28 02:26:28;;;;;;;;;;;;;;;12.00;60.30;100876.59;4962981;28;114267;-66
2022/11/28 02:29:19;;;;;;;;;;;;;;;11.99;60.29;100869.56;4953291;28;124284;-66
2022/11/28 02:32:04;;;;;;;;;;;;;;;12.00;60.42;100868.63;4951169;28;124473;-66
2022/11/28 02:34:50;;;;;;;;;;;;;;;12.00;60.31;100871.28;4950022;28;115321;-66
2022/11/28 02:37:48;;;;;;;;;;;;;;;12.00;60.52;100872.13;4962441;28;114654;-66
2022/11/28 02:40:24;;;;;;;;;;;;;;;12.03;60.29;100871.13;4952971;28;124320;-66
2022/11/28 02:43:01;;;;;;;;;;;;;;;12.04;60.55;100872.84;4958138;28;124054;-66
2022/11/28 02:45:28;;;;;;;;;;;;;;;12.05;60.49;100871.88;4955540;28;112621;-66
2022/11/28 02:48:00;;;;;;;;;;;;;;;12.07;60.30;100867.38;4968263;28;113421;-66
2022/11/28 02:50:31;;;;;;;;;;;;;;;12.07;60.37;100872.66;4960323;28;124094;-66
2022/11/28 02:53:06;;;;;;;;;;;;;;;12.08;60.36;100864.63;4962049;28;124340;-66
2022/11/28 02:55:36;;;;;;;;;;;;;;;12.07;60.28;100856.75;4965222;28;114796;-66
2022/11/28 02:58:03;;;;;;;;;;;;;;;12.06;60.24;100855.91;4945617;28;113636;-66
2022/11/28 03:00:31;;;;;;;;;;;;;;;12.05;60.34;100853.31;4952076;28;123214;-66
2022/11/28 03:03:08;;;;;;;;;;;;;;;12.04;60.33;100856.91;4967658;28;124472;-67
2022/11/28 03:05:56;;;;;;;;;;;;;;;12.03;60.32;100855.19;4960774;28;115331;-66
2022/11/28 03:08:34;;;;;;;;;;;;;;;12.02;60.42;100853.50;4940768;28;114462;-66
2022/11/28 03:11:07;;;;;;;;;;;;;;;12.01;60.45;100851.75;4961626;28;123132;-66
2022/11/28 03:13:37;;;;;;;;;;;;;;;12.00;60.27;100852.72;4964634;28;123951;-66
2022/11/28 03:16:13;;;;;;;;;;;;;;;11.98;60.54;100859.88;4947242;28;116172;-66
2022/11/28 03:19:06;;;;;;;;;;;;;;;11.99;60.47;100858.94;4962518;28;113663;-66
2022/11/28 03:21:33;;;;;;;;;;;;;;;11.98;60.31;100857.22;4923036;28;124531;-66
2022/11/28 03:24:02;;;;;;;;;;;;;;;11.98;60.58;100854.56;4961496;28;124730;-67
2022/11/28 03:26:38;;;;;;;;;;;;;;;11.98;60.53;100851.91;4961544;28;115298;-66
2022/11/28 03:29:13;;;;;;;;;;;;;;;11.98;60.53;100846.59;4956185;28;115266;-66
2022/11/28 03:31:49;;;;;;;;;;;;;;;11.97;60.51;100855.50;4965076;28;124014;-66
2022/11/28 03:34:19;;;;;;;;;;;;;;;11.98;60.34;100859.88;4963883;28;124112;-67
2022/11/28 03:36:52;;;;;;;;;;;;;;;11.97;60.36;100858.16;4962118;28;114685;-67
2022/11/28 03:39:21;;;;;;;;;;;;;;;11.97;60.44;100858.16;4962496;28;114032;-66
2022/11/28 03:41:58;;;;;;;;;;;;;;;11.98;60.55;100857.22;4963307;28;123336;-67
2022/11/28 03:44:30;;;;;;;;;;;;;;;11.97;60.61;100850.19;4956116;28;123736;-66
2022/11/28 03:46:59;;;;;;;;;;;;;;;11.98;60.60;100854.56;4962116;28;114523;-66
2022/11/28 03:49:28;;;;;;;;;;;;;;;11.98;60.47;100852.78;4963212;28;113893;-66
2022/11/28 03:52:03;;;;;;;;;;;;;;;12.00;60.47;100855.38;4949345;28;123150;-66
2022/11/28 03:54:35;;;;;;;;;;;;;;;11.98;60.34;100851.91;4957725;28;123989;-66
2022/11/28 03:57:18;;;;;;;;;;;;;;;11.98;60.47;100851.91;4963561;28;115228;-66
2022/11/28 03:59:47;;;;;;;;;;;;;;;11.97;60.52;100852.84;4959687;28;113964;-65
2022/11/28 04:02:36;;;;;;;;;;;;;;;11.98;60.53;100857.22;4968124;28;124980;-66
2022/11/28 04:05:13;;;;;;;;;;;;;;;11.96;60.54;100854.66;4965623;28;122870;-66
2022/11/28 04:07:44;;;;;;;;;;;;;;;11.96;60.56;100848.47;4961045;28;113522;-67
2022/11/28 04:10:23;;;;;;;;;;;;;;;11.96;60.52;100846.69;4964766;28;113682;-66
2022/11/28 04:12:54;;;;;;;;;;;;;;;11.96;60.68;100859.09;4954400;28;122890;-66
2022/11/28 04:15:29;;;;;;;;;;;;;;;11.96;60.50;100861.75;4961336;28;123437;-66
2022/11/28 04:18:11;;;;;;;;;;;;;;;11.96;60.52;100853.78;4953267;28;116440;-66
2022/11/28 04:20:45;;;;;;;;;;;;;;;11.96;60.56;100859.09;4959507;28;115535;-66
2022/11/28 04:23:14;;;;;;;;;;;;;;;11.95;60.83;100862.69;4963354;28;124198;-66
2022/11/28 04:25:43;;;;;;;;;;;;;;;11.94;60.49;100856.53;4945623;28;123422;-66
2022/11/28 04:28:13;;;;;;;;;;;;;;;11.94;60.60;100860.97;4969149;28;115296;-66
2022/11/28 04:30:41;;;;;;;;;;;;;;;11.95;60.65;100862.69;4951351;28;112977;-67
2022/11/28 04:33:10;;;;;;;;;;;;;;;11.96;60.57;100859.09;4963642;28;124799;-67
2022/11/28 04:35:43;;;;;;;;;;;;;;;11.95;60.57;100852.06;4965410;28;122959;-66
2022/11/28 04:38:11;;;;;;;;;;;;;;;11.95;60.65;100857.38;4950817;28;112190;-67
2022/11/28 04:40:43;;;;;;;;;;;;;;;11.93;60.57;100859.25;4968309;28;114126;-66
2022/11/28 04:43:15;;;;;;;;;;;;;;;11.92;60.59;100853.06;4960352;28;124425;-66
2022/11/28 04:45:44;;;;;;;;;;;;;;;11.93;60.79;100859.25;4963580;28;124166;-67
2022/11/28 04:48:11;;;;;;;;;;;;;;;11.93;60.78;100860.13;4963260;28;114797;-67
2022/11/28 04:51:13;;;;;;;;;;;;;;;11.92;60.65;100857.53;4967208;28;113884;-67
2022/11/28 04:53:47;;;;;;;;;;;;;;;11.90;60.78;100854.09;4881456;28;124161;-67
2022/11/28 04:56:20;;;;;;;;;;;;;;;11.88;60.77;100857.66;4934743;28;124369;-66
2022/11/28 04:58:48;;;;;;;;;;;;;;;11.90;60.77;100859.41;4941003;28;114651;-66
2022/11/28 05:01:17;;;;;;;;;;;;;;;11.90;60.76;100859.41;4967327;28;113471;-66
2022/11/28 05:03:44;;;;;;;;;;;;;;;11.88;60.80;100857.66;4961790;28;124149;-66
2022/11/28 05:06:21;;;;;;;;;;;;;;;11.88;60.70;100857.66;4964259;28;124156;-67
2022/11/28 05:08:48;;;;;;;;;;;;;;;11.91;60.67;100866.44;4964872;28;115486;-67
2022/11/28 05:11:14;;;;;;;;;;;;;;;11.90;60.79;100862.91;4969068;28;114618;-67
2022/11/28 05:13:41;;;;;;;;;;;;;;;11.90;60.97;100862.06;4964848;28;124553;-67
2022/11/28 05:16:09;;;;;;;;;;;;;;;11.90;60.77;100859.41;4962909;28;123424;-66
2022/11/28 05:18:36;;;;;;;;;;;;;;;11.91;60.67;100866.44;4968591;28;114780;-67
2022/11/28 05:21:07;;;;;;;;;;;;;;;11.91;60.82;100866.44;4950493;28;112552;-67
2022/11/28 05:23:38;;;;;;;;;;;;;;;11.91;60.88;100869.94;4953596;28;124118;-66
2022/11/28 05:26:06;;;;;;;;;;;;;;;11.92;60.87;100857.53;4962551;28;124287;-66
2022/11/28 05:28:33;;;;;;;;;;;;;;;11.94;60.88;100866.28;4950728;28;114863;-66
2022/11/28 05:31:00;;;;;;;;;;;;;;;11.95;60.85;100865.34;4963234;28;113710;-66
2022/11/28 05:33:28;;;;;;;;;;;;;;;11.95;60.94;100868.84;4964909;28;124895;-67
2022/11/28 05:35:56;;;;;;;;;;;;;;;11.96;60.75;100867.03;4947280;28;124241;-67
2022/11/28 05:38:23;;;;;;;;;;;;;;;11.96;60.76;100861.75;4948894;28;113881;-67
2022/11/28 05:40:50;;;;;;;;;;;;;;;11.96;60.82;100875.00;4956200;28;112530;-67
2022/11/28 05:43:16;;;;;;;;;;;;;;;11.95;60.75;100874.16;4967782;28;123977;-67
2022/11/28 05:45:43;;;;;;;;;;;;;;;11.94;60.81;100871.56;4965339;28;125180;-67
2022/11/28 05:48:10;;;;;;;;;;;;;;;11.94;60.71;100877.75;4960050;28;113793;-67
2022/11/28 05:50:38;;;;;;;;;;;;;;;11.94;60.95;100872.47;4964883;28;114445;-67
2022/11/28 05:53:06;;;;;;;;;;;;;;;11.94;60.86;100879.53;4948513;28;123255;-67
2022/11/28 05:55:33;;;;;;;;;;;;;;;11.93;60.79;100880.50;4967383;28;123866;-66
2022/11/28 05:57:59;;;;;;;;;;;;;;;11.94;60.73;100879.53;4963823;28;115580;-67
2022/11/28 06:00:26;;;;;;;;;;;;;;;11.92;60.67;100871.66;4961998;28;114608;-66
2022/11/28 06:02:53;;;;;;;;;;;;;;;11.93;60.83;100869.88;4963359;28;124574;-67
2022/11/28 06:05:26;;;;;;;;;;;;;;;11.94;60.96;100871.56;4963808;28;123997;-66
2022/11/28 06:08:11;;;;;;;;;;;;;;;11.95;60.89;100868.00;4954368;28;115014;-67
2022/11/28 06:10:38;;;;;;;;;;;;;;;11.94;60.86;100871.56;4965669;28;114457;-67
2022/11/28 06:13:05;;;;;;;;;;;;;;;11.95;60.84;100868.00;4961504;28;125066;-66
2022/11/28 06:15:32;;;;;;;;;;;;;;;11.93;60.86;100868.06;4961634;28;125351;-67
2022/11/28 06:18:04;;;;;;;;;;;;;;;11.93;60.82;100868.06;4962486;28;114039;-67
2022/11/28 06:20:33;;;;;;;;;;;;;;;11.93;60.96;100875.19;4947385;28;112656;-67
2022/11/28 06:23:00;;;;;;;;;;;;;;;11.94;61.02;100874.22;4963679;28;124164;-67
2022/11/28 06:25:27;;;;;;;;;;;;;;;11.95;60.85;100870.66;4958293;28;123247;-67
2022/11/28 06:27:54;;;;;;;;;;;;;;;11.93;60.91;100876.03;4965981;28;114165;-67
2022/11/28 06:30:20;;;;;;;;;;;;;;;11.94;60.88;100888.38;4961919;28;113995;-67
2022/11/28 06:32:47;;;;;;;;;;;;;;;11.95;60.85;100883.94;4954605;28;124393;-67
2022/11/28 06:35:14;;;;;;;;;;;;;;;11.96;60.96;100890.94;4965942;28;124817;-67
2022/11/28 06:37:41;;;;;;;;;;;;;;;11.96;60.91;100890.94;4964695;28;114953;-67
2022/11/28 06:40:08;;;;;;;;;;;;;;;11.95;60.78;100889.22;4962431;28;113528;-66
2022/11/28 06:42:35;;;;;;;;;;;;;;;11.95;60.80;100889.22;4965140;28;124106;-67
2022/11/28 06:45:02;;;;;;;;;;;;;;;11.94;60.89;100882.19;4966564;28;123921;-67
2022/11/28 06:47:29;;;;;;;;;;;;;;;11.92;60.94;100884.91;4965916;28;115279;-67
2022/11/28 06:49:56;;;;;;;;;;;;;;;11.93;60.94;100891.09;4964340;28;114855;-67
2022/11/28 06:52:23;;;;;;;;;;;;;;;11.93;60.94;100891.09;4964239;28;125049;-67
2022/11/28 06:54:50;;;;;;;;;;;;;;;11.94;61.02;100898.13;4963570;28;124006;-67
2022/11/28 06:57:16;;;;;;;;;;;;;;;11.94;61.01;100895.47;4961251;28;114917;-67
2022/11/28 06:59:43;;;;;;;;;;;;;;;11.93;60.82;100894.63;4966995;28;114344;-67
2022/11/28 07:02:10;;;;;;;;;;;;;;;11.94;61.02;100906.06;4964175;28;124229;-66
2022/11/28 07:04:37;;;;;;;;;;;;;;;11.94;60.97;100898.13;4963940;28;124060;-67
2022/11/28 07:07:04;;;;;;;;;;;;;;;11.94;61.05;100898.13;4963356;28;114026;-67
2022/11/28 07:09:31;;;;;;;;;;;;;;;11.93;61.02;100896.41;4969299;28;114138;-67
2022/11/28 07:11:58;;;;;;;;;;;;;;;11.92;60.96;100900.00;4961725;28;124676;-67
2022/11/28 07:14:25;;;;;;;;;;;;;;;11.92;61.00;100889.38;4965359;28;124603;-67
2022/11/28 07:16:52;;;;;;;;;;;;;;;11.95;61.06;100899.84;4961173;28;113692;-67
2022/11/28 07:19:21;;;;;;;;;;;;;;;11.96;61.02;100901.56;4954641;28;114448;-67
2022/11/28 07:21:49;;;;;;;;;;;;;;;11.97;60.92;100908.59;4963313;28;124204;-67
2022/11/28 07:24:16;;;;;;;;;;;;;;;11.97;60.97;100908.59;4965212;28;123851;-67
2022/11/28 07:26:44;;;;;;;;;;;;;;;11.97;60.90;100903.28;4959952;28;115549;-67
2022/11/28 07:29:15;;;;;;;;;;;;;;;11.96;61.00;100904.22;4946159;28;113494;-67
2022/11/28 07:31:42;;;;;;;;;;;;;;;11.95;61.21;100910.47;4945149;28;125593;-67
2022/11/28 07:34:09;;;;;;;;;;;;;;;11.96;60.90;100901.56;4960124;28;123931;-67
2022/11/28 07:36:36;;;;;;;;;;;;;;;11.97;61.14;100897.97;4958494;28;115606;-67
2022/11/28 07:39:04;;;;;;;;;;;;;;;11.97;61.03;100903.28;4966740;28;114572;-67
2022/11/28 07:41:31;;;;;;;;;;;;;;;11.99;61.08;100901.41;4958198;28;124191;-67
2022/11/28 07:44:00;;;;;;;;;;;;;;;12.00;61.09;100908.44;4957880;28;125009;-67
2022/11/28 07:46:28;;;;;;;;;;;;;;;12.00;60.98;100903.16;4948729;28;114621;-67
2022/11/28 07:48:55;;;;;;;;;;;;;;;11.99;60.98;100917.34;4943067;28;112806;-68
2022/11/28 07:51:23;;;;;;;;;;;;;;;11.99;60.95;100912.03;4957340;28;125466;-67
2022/11/28 07:53:51;;;;;;;;;;;;;;;12.01;61.15;100915.47;4945516;28;122704;-69
2022/11/28 07:56:19;;;;;;;;;;;;;;;12.02;61.02;100917.19;4948290;28;114142;-68
2022/11/28 07:58:46;;;;;;;;;;;;;;;12.04;61.07;100923.28;4951465;28;113871;-69
2022/11/28 08:01:15;;;;;;;;;;;;;;;12.07;61.04;100920.47;4936214;28;124516;-69
2022/11/28 08:03:43;;;;;;;;;;;;;;;12.07;60.90;100920.47;4956659;28;123451;-68
2022/11/28 08:06:11;;;;;;;;;;;;;;;12.08;61.04;100922.19;4952375;28;113702;-68
2022/11/28 08:08:38;;;;;;;;;;;;;;;12.09;61.03;100929.19;4940205;28;112640;-68
2022/11/28 08:11:06;;;;;;;;;;;;;;;12.10;61.03;100930.94;4962599;28;125194;-69
2022/11/28 08:13:34;;;;;;;;;;;;;;;12.10;61.11;100930.94;4949656;28;125783;-69
2022/11/28 08:16:08;;;;;;;;;;;;;;;12.10;61.03;100930.94;4968142;28;114778;-69
2022/11/28 08:18:35;;;;;;;;;;;;;;;12.10;60.87;100930.94;4958563;28;113940;-69
2022/11/28 08:21:06;;;;;;;;;;;;;;;12.11;61.06;100927.34;4963647;28;124376;-69
2022/11/28 08:23:33;;;;;;;;;;;;;;;12.11;60.99;100932.66;4960068;28;123013;-68
2022/11/28 08:26:01;;;;;;;;;;;;;;;12.10;60.99;100925.63;4960433;28;115100;-68
2022/11/28 08:28:28;;;;;;;;;;;;;;;12.10;61.02;100936.25;4962722;28;114154;-69
2022/11/28 08:30:55;;;;;;;;;;;;;;;12.11;60.96;100932.66;4939103;28;124099;-69
2022/11/28 08:33:23;;;;;;;;;;;;;;;12.10;61.12;100930.94;4947092;28;123599;-69
2022/11/28 08:35:50;;;;;;;;;;;;;;;12.10;61.22;100936.25;4955315;28;114392;-68
2022/11/28 08:38:19;;;;;;;;;;;;;;;12.12;61.10;100934.38;4963810;28;114382;-69
2022/11/28 08:40:46;;;;;;;;;;;;;;;12.12;61.07;100934.38;4948440;28;123884;-69
2022/11/28 08:43:13;;;;;;;;;;;;;;;12.14;60.95;100943.13;4943668;28;122996;-69
2022/11/28 08:45:40;;;;;;;;;;;;;;;12.14;61.06;100943.13;4963542;28;114089;-69
2022/11/28 08:48:07;;;;;;;;;;;;;;;12.14;61.08;100943.13;4965796;28;112920;-68
2022/11/28 08:50:34;;;;;;;;;;;;;;;12.15;61.05;100944.84;4963146;28;125535;-69
2022/11/28 08:53:00;;;;;;;;;;;;;;;12.15;60.96;100944.84;4947114;28;123512;-69
2022/11/28 08:55:33;;;;;;;;;;;;;;;12.17;61.08;100948.28;4965929;28;114384;-69
2022/11/28 08:58:07;;;;;;;;;;;;;;;12.17;61.12;100948.28;4956304;28;115066;-68
2022/11/28 09:00:34;;;;;;;;;;;;;;;12.18;61.01;100944.66;4959433;28;124567;-69
2022/11/28 09:03:01;;;;;;;;;;;;;;;12.20;61.06;100949.91;4965606;28;124045;-68
2022/11/28 09:05:28;;;;;;;;;;;;;;;12.21;61.14;100949.00;4963690;28;115220;-69
2022/11/28 09:07:55;;;;;;;;;;;;;;;12.23;61.03;100953.28;4966019;28;113509;-69
2022/11/28 09:10:22;;;;;;;;;;;;;;;12.24;61.31;100944.38;4948607;28;123722;-69
2022/11/28 09:12:50;;;;;;;;;;;;;;;12.26;61.07;100941.63;4967550;28;124313;-69
2022/11/28 09:15:17;;;;;;;;;;;;;;;12.27;61.00;100952.19;4945249;28;114646;-69
2022/11/28 09:17:45;;;;;;;;;;;;;;;12.27;61.01;100949.53;4946996;28;113960;-69
2022/11/28 09:20:12;;;;;;;;;;;;;;;12.25;61.00;100943.44;4962960;28;123657;-68
2022/11/28 09:22:41;;;;;;;;;;;;;;;12.27;61.18;100954.84;4961151;28;122940;-69
2022/11/28 09:25:08;;;;;;;;;;;;;;;12.29;61.02;100956.56;4968786;28;115027;-69
2022/11/28 09:27:35;;;;;;;;;;;;;;;12.28;61.14;100950.38;4964144;28;114440;-69
2022/11/28 09:30:02;;;;;;;;;;;;;;;12.29;61.16;100946.78;4960308;28;123647;-68
2022/11/28 09:32:29;;;;;;;;;;;;;;;12.30;61.00;100953.84;4935270;28;124223;-68
2022/11/28 09:34:57;;;;;;;;;;;;;;;12.30;61.24;100958.28;4939255;28;113326;-68
2022/11/28 09:37:23;;;;;;;;;;;;;;;12.29;61.13;100956.56;4953085;28;114188;-68
2022/11/28 09:39:50;;;;;;;;;;;;;;;12.31;61.18;100960.00;4958306;28;123883;-69
2022/11/28 09:42:38;;;;;;;;;;;;;;;12.33;61.14;100955.47;4957787;28;125350;-68
2022/11/28 09:45:11;;;;;;;;;;;;;;;12.34;61.19;100959.81;4965077;28;114213;-68
2022/11/28 09:47:39;;;;;;;;;;;;;;;12.35;61.24;100956.25;4955884;28;113858;-69
2022/11/28 09:50:15;;;;;;;;;;;;;;;12.38;61.23;100972.03;4962005;28;124227;-68
2022/11/28 09:52:55;;;;;;;;;;;;;;;12.39;61.30;100963.13;4966253;28;125006;-69
2022/11/28 09:55:28;;;;;;;;;;;;;;;12.42;61.21;100960.31;4953359;28;114306;-69
2022/11/28 09:57:55;;;;;;;;;;;;;;;12.43;61.22;100959.38;4950300;28;113533;-69
2022/11/28 10:00:42;;;;;;;;;;;;;;;12.46;61.27;100969.84;4957911;28;124281;-69
2022/11/28 10:03:15;;;;;;;;;;;;;;;12.47;61.19;100971.56;4954145;28;124782;-68
2022/11/28 10:05:54;;;;;;;;;;;;;;;12.49;61.14;100974.13;4967641;28;115662;-68
2022/11/28 10:08:30;;;;;;;;;;;;;;;12.50;61.23;100971.41;4954157;28;115156;-68
2022/11/28 10:11:08;;;;;;;;;;;;;;;12.51;61.25;100975.78;4951785;28;124314;-68
2022/11/28 10:13:40;;;;;;;;;;;;;;;12.53;61.18;100965.94;4966694;28;123995;-69
2022/11/28 10:16:27;;;;;;;;;;;;;;;12.54;61.17;100972.97;4967298;28;114182;-68
2022/11/28 10:18:58;;;;;;;;;;;;;;;12.56;61.19;100971.06;4951793;28;114257;-68
2022/11/28 10:21:42;;;;;;;;;;;;;;;12.57;61.30;100972.81;4964458;28;123969;-68
2022/11/28 10:24:16;;;;;;;;;;;;;;;12.58;61.19;100974.53;4956863;28;123959;-68
2022/11/28 10:26:45;;;;;;;;;;;;;;;12.60;61.25;100964.69;4954431;28;115069;-68
2022/11/28 10:29:31;;;;;;;;;;;;;;;12.62;61.14;100970.78;4955027;28;115013;-68
2022/11/28 10:32:00;;;;;;;;;;;;;;;12.64;61.24;100958.28;4954373;28;124364;-68
2022/11/28 10:34:29;;;;;;;;;;;;;;;12.66;61.24;100961.72;4952915;28;123763;-68
2022/11/28 10:37:09;;;;;;;;;;;;;;;12.71;61.16;100960.59;4954046;28;115171;-69
2022/11/28 10:39:41;;;;;;;;;;;;;;;12.74;61.14;100965.78;4933016;28;113853;-68
2022/11/28 10:42:16;;;;;;;;;;;;;;;12.77;61.11;100962.94;4955027;28;124897;-69
2022/11/28 10:44:45;;;;;;;;;;;;;;;12.80;61.21;100965.44;4951422;28;124024;-68
2022/11/28 10:47:22;;;;;;;;;;;;;;;12.81;61.21;100962.72;4955918;28;114797;-69
2022/11/28 10:49:49;;;;;;;;;;;;;;;12.84;61.38;100964.34;4956560;28;113901;-69
2022/11/28 10:52:22;;;;;;;;;;;;;;;12.88;61.31;100965.03;4952911;28;124579;-68
2022/11/28 10:54:52;;;;;;;;;;;;;;;12.90;61.34;100964.00;4950706;28;124516;-69
2022/11/28 10:57:29;;;;;;;;;;;;;;;12.94;61.29;100960.28;4932564;28;115294;-69
2022/11/28 11:00:17;;;;;;;;;;;;;;;12.96;61.04;100974.34;4950623;28;115251;-68
2022/11/28 11:02:47;;;;;;;;;;;;;;;12.96;61.29;100969.03;4950526;28;124386;-68
2022/11/28 11:05:15;;;;;;;;;;;;;;;12.98;61.13;100969.81;4956961;28;124679;-69
2022/11/28 11:07:44;;;;;;;;;;;;;;;13.00;61.10;100965.25;4951084;28;114276;-69
2022/11/28 11:10:12;;;;;;;;;;;;;;;13.01;61.20;100966.09;4957612;28;113272;-69
2022/11/28 11:12:39;;;;;;;;;;;;;;;13.02;61.24;100963.38;4948868;28;123638;-69
2022/11/28 11:15:13;;;;;;;;;;;;;;;13.02;61.11;100960.72;4961323;28;124220;-69
2022/11/28 11:17:40;;;;;;;;;;;;;;;13.03;61.38;100958.91;4971525;28;114374;-69
2022/11/28 11:20:24;;;;;;;;;;;;;;;13.03;61.20;100965.09;4941885;28;112737;-68
2022/11/28 11:22:55;;;;;;;;;;;;;;;13.07;61.22;100970.25;4940151;28;125284;-69
2022/11/28 11:25:26;;;;;;;;;;;;;;;13.07;61.13;100965.78;4962281;28;124121;-69
2022/11/28 11:28:03;;;;;;;;;;;;;;;13.08;61.27;100966.66;4938306;28;114904;-69
2022/11/28 11:30:44;;;;;;;;;;;;;;;13.10;61.27;100964.78;4963371;28;113380;-69
2022/11/28 11:33:14;;;;;;;;;;;;;;;13.08;61.27;100964.00;4962651;28;124178;-69
2022/11/28 11:35:46;;;;;;;;;;;;;;;13.08;61.13;100966.66;4961736;28;124199;-69
2022/11/28 11:38:15;;;;;;;;;;;;;;;13.10;61.00;100970.09;4952576;28;114504;-69
2022/11/28 11:40:42;;;;;;;;;;;;;;;13.09;61.26;100969.25;4970469;28;113686;-69
2022/11/28 11:43:28;;;;;;;;;;;;;;;13.10;61.29;100965.63;4954760;28;125463;-69
2022/11/28 11:46:08;;;;;;;;;;;;;;;13.11;61.23;100961.16;4950063;28;124154;-69
2022/11/28 11:48:36;;;;;;;;;;;;;;;13.12;61.12;100968.19;4943109;28;114387;-69
2022/11/28 11:51:03;;;;;;;;;;;;;;;13.12;61.51;100968.19;4960655;28;114575;-69
2022/11/28 11:53:30;;;;;;;;;;;;;;;13.12;61.21;100970.88;4963748;28;124924;-68
2022/11/28 11:55:59;;;;;;;;;;;;;;;13.13;61.09;100969.91;4959531;28;124856;-69
2022/11/28 11:58:41;;;;;;;;;;;;;;;13.14;61.29;100961.00;4936869;28;114577;-69
2022/11/28 12:01:10;;;;;;;;;;;;;;;13.17;61.30;100960.84;4959807;28;113932;-69
2022/11/28 12:03:52;;;;;;;;;;;;;;;13.20;61.34;100971.28;4947170;28;123552;-69
2022/11/28 12:06:22;;;;;;;;;;;;;;;13.22;61.35;100964.97;4935927;28;125030;-69
2022/11/28 12:08:51;;;;;;;;;;;;;;;13.22;61.29;100969.41;4951094;28;115684;-69
2022/11/28 12:11:21;;;;;;;;;;;;;;;13.24;61.40;100970.19;4966425;28;113653;-69
2022/11/28 12:13:49;;;;;;;;;;;;;;;13.26;61.37;100960.34;4953656;28;124236;-69
2022/11/28 12:16:34;;;;;;;;;;;;;;;13.27;61.36;100951.41;4965006;28;124151;-69
2022/11/28 12:19:20;;;;;;;;;;;;;;;13.30;61.44;100961.94;4961295;28;114526;-69
2022/11/28 12:21:58;;;;;;;;;;;;;;;13.33;61.35;100961.75;4969788;28;113794;-69
2022/11/28 12:24:29;;;;;;;;;;;;;;;13.37;61.38;100968.63;4967890;28;123982;-69
2022/11/28 12:27:03;;;;;;;;;;;;;;;13.41;61.18;100970.19;4970285;28;124121;-69
2022/11/28 12:29:36;;;;;;;;;;;;;;;13.43;61.47;100968.28;4968076;28;114247;-69
2022/11/28 12:32:13;;;;;;;;;;;;;;;13.48;61.51;100964.50;4953313;28;113651;-69
2022/11/28 12:34:58;;;;;;;;;;;;;;;13.49;61.35;100969.75;4956493;28;124850;-68
2022/11/28 12:37:37;;;;;;;;;;;;;;;13.51;61.27;100967.88;4946939;28;124645;-68
2022/11/28 12:40:30;;;;;;;;;;;;;;;13.52;61.25;100971.38;4964241;28;114957;-69
2022/11/28 12:43:07;;;;;;;;;;;;;;;13.53;61.34;100973.09;4961363;28;115320;-69
2022/11/28 12:45:44;;;;;;;;;;;;;;;13.55;61.21;100973.88;4958444;28;124316;-69